EBAW

Antwerp International (Deurne) Airport

Antwerp, Belgium
TAF EBAW 092310Z 1000/1009 31011KT 9999 SCT020
Issued Valid From Valid To
Dec-9 @ 23:10 UTC
(44 minutes ago)
Dec-10 @ 00:00 UTC
(in 6 minutes)
Dec-10 @ 09:00 UTC
(in 9 hours)
Dec-10 @ 00:00 to Dec-10 @ 09:00
TAF EBAW 092310Z 1000/1009 31011KT 9999 SCT020
Wind Visibility Clouds
310° at 11 knots 10,000+ meters
  • Scattered at 2,000' AGL
TAF EBAW 092310Z 1000/1009 31011KT 9999 SCT020
Issued Dec-9 @ 23:10 UTC
(44 minutes ago)
Valid From Dec-10 @ 00:00 UTC
(in 6 minutes)
Valid To Dec-10 @ 09:00 UTC
(in 9 hours)
Dec-10 @ 00:00 - Dec-10 @ 09:00
Wind Visibility
310° at 11 knots 10,000+ meters
Clouds
  • Scattered at 2,000' AGL